Harrison Township, Michigan
Current Conditions -  °F | °C
As of 2:55 PM on Sunday 25 Jan 2015 (Local Time) from KMTC Reporting Station
Broken Clouds Broken Clouds  
Wind Chill: -12°   Ceiling: 18000
Heat Index: -5°   Visibility: 10mi
Dew Point: -12°   Wind: 15mph
Humidity: 57%   Direction: 40°NE
Pressure: 29.89"   Gusts: NA
Location:  42.58°N, 82.83°W
Report Text: KMTC 251955Z 04013KT 10SM SCT065 BKN180 M05/M12 A2989 RMK SLP135 T10471121
Loading
Personal Weather Stations






























Interactive Weather Map New forecast layout! Learn more

10-Day Weather Forecast

Advertisements
Track Severe Weather on mobile